createdAt,value
2022-12-04T00:01:37.124Z,17.13
2022-12-04T00:06:39.061Z,17.53
2022-12-04T00:11:41.048Z,17.73
2022-12-04T00:16:42.852Z,19.23
2022-12-04T00:21:45.278Z,17.53
2022-12-04T00:26:47.275Z,20.10
2022-12-04T00:31:49.124Z,18.47
2022-12-04T00:36:51.152Z,19.43
2022-12-04T00:41:53.039Z,17.97
2022-12-04T00:46:54.856Z,19.50
2022-12-04T00:51:56.573Z,18.27
2022-12-04T00:56:58.493Z,18.83
2022-12-04T01:02:00.461Z,17.00
2022-12-04T01:07:05.194Z,17.97
2022-12-04T01:12:07.763Z,19.37
2022-12-04T01:17:09.487Z,18.27
2022-12-04T01:22:11.327Z,18.70
2022-12-04T01:27:13.369Z,19.47
2022-12-04T01:32:16.278Z,18.03
2022-12-04T01:37:18.240Z,18.13
2022-12-04T01:42:20.217Z,19.20
2022-12-04T01:47:22.123Z,20.30
2022-12-04T01:52:25.700Z,19.20
2022-12-04T01:57:32.148Z,18.37
2022-12-04T02:02:39.076Z,18.77
2022-12-04T02:07:44.799Z,20.00
2022-12-04T02:13:11.711Z,20.87
2022-12-04T02:18:42.848Z,20.97
2022-12-04T02:24:00.088Z,21.37
2022-12-04T02:29:17.027Z,20.77
2022-12-04T02:34:28.229Z,21.07
2022-12-04T02:39:38.881Z,20.43
2022-12-04T02:44:47.345Z,19.23
2022-12-04T02:50:08.346Z,18.97
2022-12-04T02:55:20.146Z,19.07
2022-12-04T03:00:22.603Z,21.43
2022-12-04T03:05:50.536Z,19.47
2022-12-04T03:10:57.876Z,21.23
2022-12-04T03:16:19.502Z,20.13
2022-12-04T03:21:26.677Z,20.20
2022-12-04T03:26:35.920Z,21.77
2022-12-04T03:31:50.612Z,20.00
2022-12-04T03:36:57.254Z,23.73
2022-12-04T03:42:27.452Z,21.17
2022-12-04T03:48:15.836Z,20.80
2022-12-04T03:53:41.759Z,20.57
2022-12-04T03:58:48.036Z,22.47
2022-12-04T04:03:53.947Z,20.60
2022-12-04T04:08:58.464Z,19.70
2022-12-04T04:14:24.725Z,20.07
2022-12-04T04:19:49.460Z,18.97
2022-12-04T04:25:02.202Z,23.00
2022-12-04T04:30:06.471Z,21.03
2022-12-04T04:35:35.948Z,20.90
2022-12-04T04:40:50.079Z,18.17
2022-12-04T04:46:15.808Z,20.00
2022-12-04T04:51:18.390Z,20.73
2022-12-04T04:56:21.235Z,20.63
2022-12-04T05:01:26.745Z,21.73
2022-12-04T05:06:28.659Z,20.27
2022-12-04T05:11:30.509Z,23.83
2022-12-04T05:16:32.696Z,20.63
2022-12-04T05:21:34.779Z,20.77
2022-12-04T05:26:36.772Z,23.63
2022-12-04T05:31:38.719Z,23.03
2022-12-04T05:36:40.600Z,24.03
2022-12-04T05:41:42.417Z,21.77
2022-12-04T05:46:44.172Z,21.53
2022-12-04T05:51:46.240Z,21.13
2022-12-04T05:56:48.567Z,20.97
2022-12-04T06:01:50.365Z,20.70
2022-12-04T06:06:53.765Z,21.47
2022-12-04T06:11:58.203Z,21.87
2022-12-04T06:17:00.112Z,19.53
2022-12-04T06:22:01.843Z,20.63
2022-12-04T06:27:26.877Z,23.20
2022-12-04T06:32:25.446Z,22.47
2022-12-04T06:37:27.419Z,24.53
2022-12-04T06:42:29.388Z,21.93
2022-12-04T06:47:31.125Z,21.10
2022-12-04T06:52:34.180Z,21.37
2022-12-04T06:57:35.909Z,21.87
2022-12-04T07:02:37.814Z,22.67
2022-12-04T07:07:40.033Z,20.67
2022-12-04T07:12:41.796Z,21.93
2022-12-04T07:17:43.707Z,21.60
2022-12-04T07:22:45.685Z,20.90
2022-12-04T07:27:47.747Z,22.03
2022-12-04T07:32:49.527Z,21.17
2022-12-04T07:37:51.255Z,22.13
2022-12-04T07:42:53.160Z,22.10
2022-12-04T07:47:54.915Z,21.60
2022-12-04T07:52:56.854Z,22.63
2022-12-04T07:57:59.726Z,22.23
2022-12-04T08:03:01.647Z,20.47
2022-12-04T08:08:03.888Z,22.70
2022-12-04T08:13:05.686Z,22.30
2022-12-04T08:18:07.637Z,24.30
2022-12-04T08:23:09.638Z,21.37
2022-12-04T08:28:11.875Z,23.50
2022-12-04T08:33:13.684Z,24.37
2022-12-04T08:38:15.460Z,22.60
2022-12-04T08:43:17.367Z,21.97
2022-12-04T08:48:19.286Z,22.93
2022-12-04T08:53:21.989Z,21.27
2022-12-04T08:58:23.943Z,22.70
2022-12-04T09:03:30.700Z,22.07
2022-12-04T09:08:33.896Z,22.03
2022-12-04T09:13:35.747Z,19.23
2022-12-04T09:19:12.251Z,22.10
2022-12-04T09:24:18.001Z,22.00
2022-12-04T09:29:21.300Z,22.67
2022-12-04T09:34:28.466Z,22.67
2022-12-04T09:39:40.239Z,20.47
2022-12-04T09:45:20.247Z,20.67
2022-12-04T09:51:13.853Z,19.03
2022-12-04T09:56:32.509Z,20.73
2022-12-04T10:02:23.443Z,18.47
2022-12-04T10:08:20.113Z,18.93
2022-12-04T10:13:53.174Z,17.77
2022-12-04T10:20:11.207Z,17.63
2022-12-04T10:25:40.344Z,19.03
2022-12-04T10:30:43.549Z,15.10
2022-12-04T10:35:49.090Z,15.30
2022-12-04T10:40:59.832Z,13.63
2022-12-04T10:46:02.189Z,16.67
2022-12-04T10:51:04.372Z,15.70
2022-12-04T10:56:15.186Z,13.63
2022-12-04T11:01:17.455Z,11.63
2022-12-04T11:06:25.200Z,15.17
2022-12-04T11:11:33.279Z,14.07
2022-12-04T11:16:38.850Z,14.53
2022-12-04T11:21:43.511Z,16.17
2022-12-04T11:26:47.255Z,14.97
2022-12-04T11:31:54.838Z,16.63
2022-12-04T11:37:00.400Z,16.23
2022-12-04T11:42:19.877Z,14.03
2022-12-04T11:47:23.899Z,16.33
2022-12-04T11:53:02.495Z,15.70
2022-12-04T11:58:39.007Z,15.63
2022-12-04T12:04:18.347Z,14.90
2022-12-04T12:09:28.443Z,13.57
2022-12-04T12:14:49.187Z,12.53
2022-12-04T12:20:21.902Z,14.23
2022-12-04T12:25:35.466Z,14.57
2022-12-04T12:31:18.308Z,13.27
2022-12-04T12:36:24.365Z,11.67
2022-12-04T12:41:35.984Z,11.03
2022-12-04T12:46:48.854Z,12.00
2022-12-04T12:52:12.721Z,12.03
2022-12-04T12:57:32.787Z,12.13
2022-12-04T13:02:42.271Z,14.03
2022-12-04T13:07:58.989Z,13.10
2022-12-04T13:13:05.862Z,15.63
2022-12-04T13:18:11.761Z,14.97
2022-12-04T13:23:31.867Z,14.43
2022-12-04T13:29:02.403Z,19.43
2022-12-04T13:34:31.396Z,18.37
2022-12-04T13:40:14.653Z,19.43
2022-12-04T13:45:28.604Z,18.53
2022-12-04T13:50:35.919Z,20.20
2022-12-04T13:55:39.987Z,20.13
2022-12-04T14:00:43.662Z,20.87
2022-12-04T14:05:45.596Z,18.53
2022-12-04T14:11:18.534Z,15.03
2022-12-04T14:16:29.470Z,15.70
2022-12-04T14:21:46.811Z,16.93
2022-12-04T14:32:18.755Z,16.57
2022-12-04T14:37:31.637Z,16.10
2022-12-04T14:42:40.332Z,16.73
2022-12-04T14:48:06.866Z,15.97
2022-12-04T14:53:29.930Z,15.27
2022-12-04T14:58:36.258Z,13.93
2022-12-04T15:03:44.701Z,14.33
2022-12-04T15:08:52.161Z,15.53
2022-12-04T15:13:54.094Z,15.33
2022-12-04T15:19:00.557Z,17.33
2022-12-04T15:24:08.404Z,17.57
2022-12-04T15:29:18.789Z,17.80
2022-12-04T15:34:24.757Z,15.97
2022-12-04T15:39:28.648Z,17.43
2022-12-04T15:44:35.585Z,17.03
2022-12-04T15:49:37.335Z,17.00
2022-12-04T15:54:44.183Z,16.07
2022-12-04T15:59:51.145Z,16.93
2022-12-04T16:04:53.129Z,16.83
2022-12-04T16:10:03.284Z,15.80
2022-12-04T16:15:06.051Z,15.73
2022-12-04T16:20:08.212Z,17.00
2022-12-04T16:25:11.943Z,16.60
2022-12-04T16:30:14.328Z,14.57
2022-12-04T16:35:17.150Z,16.60
2022-12-04T16:40:19.108Z,15.50
2022-12-04T16:45:20.960Z,16.63
2022-12-04T16:50:23.771Z,16.83
2022-12-04T16:55:33.317Z,16.33
2022-12-04T17:00:36.478Z,15.13
2022-12-04T17:05:38.478Z,16.63
2022-12-04T17:10:40.398Z,17.70
2022-12-04T17:15:42.294Z,18.97
2022-12-04T17:20:44.677Z,15.63
2022-12-04T17:25:46.630Z,17.93
2022-12-04T17:30:48.627Z,17.73
2022-12-04T17:35:50.813Z,19.43
2022-12-04T17:41:03.380Z,18.80
2022-12-04T17:46:12.830Z,17.87
2022-12-04T17:51:17.988Z,18.33
2022-12-04T17:56:21.945Z,20.60
2022-12-04T18:01:26.256Z,16.83
2022-12-04T18:06:31.127Z,18.93
2022-12-04T18:11:34.926Z,18.40
2022-12-04T18:16:39.275Z,18.93
2022-12-04T18:27:46.899Z,20.23
2022-12-04T18:32:48.878Z,19.93
2022-12-04T18:37:50.627Z,20.73
2022-12-04T18:42:52.427Z,21.13
2022-12-04T18:47:54.186Z,20.23
2022-12-04T18:53:00.090Z,21.50
2022-12-04T18:58:03.531Z,19.70
2022-12-04T19:03:06.091Z,19.30
2022-12-04T19:08:09.170Z,18.93
2022-12-04T19:13:11.439Z,20.77
2022-12-04T19:18:14.520Z,19.90
2022-12-04T19:23:16.284Z,19.97
2022-12-04T19:28:18.040Z,19.53
2022-12-04T19:33:20.759Z,19.50
2022-12-04T19:38:22.744Z,19.47
2022-12-04T19:43:24.534Z,18.50
2022-12-04T19:48:27.286Z,18.93
2022-12-04T19:53:29.297Z,20.70
2022-12-04T19:58:31.860Z,18.67
2022-12-04T20:03:34.817Z,18.37
2022-12-04T20:08:37.749Z,19.87
2022-12-04T20:13:39.984Z,20.93
2022-12-04T20:18:42.593Z,20.00
2022-12-04T20:23:49.273Z,19.47
2022-12-04T20:28:52.176Z,20.07
2022-12-04T20:33:55.653Z,19.93
2022-12-04T20:38:59.207Z,17.90
2022-12-04T20:44:03.930Z,19.97
2022-12-04T20:49:08.507Z,20.97
2022-12-04T20:54:18.124Z,21.57
2022-12-04T20:59:21.760Z,22.03
2022-12-04T21:04:23.977Z,21.77
2022-12-04T21:09:26.619Z,23.30
2022-12-04T21:14:49.074Z,23.37
2022-12-04T21:19:50.998Z,23.37
2022-12-04T21:24:52.903Z,23.63
2022-12-04T21:29:56.168Z,23.33
2022-12-04T21:34:58.423Z,24.67
2022-12-04T21:40:00.623Z,24.43
2022-12-04T21:45:06.242Z,21.83
2022-12-04T21:50:08.542Z,23.20
2022-12-04T21:55:10.355Z,21.13
2022-12-04T22:00:13.121Z,22.43
2022-12-04T22:05:14.891Z,23.00
2022-12-04T22:10:16.806Z,22.37
2022-12-04T22:15:19.199Z,23.07
2022-12-04T22:20:23.491Z,21.20
2022-12-04T22:25:25.286Z,21.83
2022-12-04T22:30:27.536Z,22.23
2022-12-04T22:35:29.471Z,23.10
2022-12-04T22:40:31.450Z,21.70
2022-12-04T22:45:33.340Z,19.83
2022-12-04T22:50:35.114Z,21.20
2022-12-04T22:55:37.035Z,22.80
2022-12-04T23:00:39.373Z,22.20
2022-12-04T23:05:41.404Z,22.27
2022-12-04T23:10:43.194Z,21.43
2022-12-04T23:15:45.057Z,19.77
2022-12-04T23:20:47.019Z,21.07
2022-12-04T23:25:48.982Z,21.80
2022-12-04T23:30:50.766Z,22.57
2022-12-04T23:35:54.496Z,22.53
2022-12-04T23:41:21.879Z,20.40
2022-12-04T23:46:33.253Z,21.50
2022-12-04T23:51:35.066Z,22.13
2022-12-04T23:56:36.923Z,21.70
